Time;durP1;ratioP1;P1;durP2;ratioP2;P2;SDS_P1;SDS_P2;PMS_P1;PMS_P2;Temp;Humidity;BMP_temperature;BMP_pressure;BME280_temperature;BME280_humidity;BME280_pressure;Samples;Min_cycle;Max_cycle;Signal;HPM_P1;HPM_P2
2022/05/17 00:06:51;;;;;;;7.97;3.78;;;;;;;24.09;40.30;100334.66;20435061;28;99497;-73
2022/05/17 00:16:52;;;;;;;6.30;3.67;;;;;;;24.07;40.41;100328.69;20434015;28;97955;-74
2022/05/17 00:26:53;;;;;;;4.90;3.58;;;;;;;24.12;40.17;100312.38;20437886;28;97353;-74
2022/05/17 00:36:54;;;;;;;7.72;4.25;;;;;;;24.03;40.44;100294.72;20436164;28;97011;-73
2022/05/17 00:47:08;;;;;;;6.23;3.77;;;;;;;23.93;40.95;100297.38;20440222;28;97369;-73
2022/05/17 00:57:30;;;;;;;7.40;4.10;;;;;;;23.80;41.54;100293.16;20445045;28;97717;-73
2022/05/17 01:07:41;;;;;;;8.00;4.30;;;;;;;23.83;41.25;100284.94;20439152;28;97098;-74
2022/05/17 01:17:41;;;;;;;6.35;4.07;;;;;;;23.77;41.34;100279.38;20448489;28;98355;-73
2022/05/17 01:27:54;;;;;;;9.02;4.50;;;;;;;23.78;41.65;100279.25;20442104;28;98047;-73
2022/05/17 01:37:56;;;;;;;12.50;4.40;;;;;;;23.68;41.75;100273.13;20427222;28;97833;-74
2022/05/17 01:47:57;;;;;;;11.53;4.60;;;;;;;23.69;41.75;100273.94;20366579;28;97228;-73
2022/05/17 01:57:57;;;;;;;8.75;4.32;;;;;;;23.64;41.85;100279.66;20365832;28;97242;-73
2022/05/17 02:07:58;;;;;;;6.97;4.05;;;;;;;23.62;41.92;100274.50;20366803;28;97679;-74
2022/05/17 02:17:59;;;;;;;11.07;4.80;;;;;;;23.62;41.88;100268.38;20358770;28;97553;-74
2022/05/17 02:27:59;;;;;;;9.35;4.60;;;;;;;23.58;41.95;100264.34;20361871;28;97618;-73
2022/05/17 02:38:00;;;;;;;9.80;4.43;;;;;;;23.54;42.10;100262.94;20362821;28;99598;-73
2022/05/17 02:48:01;;;;;;;8.55;4.05;;;;;;;23.49;41.94;100247.50;20359598;28;97954;-74
2022/05/17 02:58:01;;;;;;;7.90;4.78;;;;;;;23.45;42.13;100260.16;20357197;28;98054;-73
2022/05/17 03:08:02;;;;;;;9.25;4.28;;;;;;;23.50;41.80;100265.84;20355967;28;99075;-73
2022/05/17 03:18:03;;;;;;;8.73;4.07;;;;;;;23.43;42.01;100267.38;20358784;28;99217;-73
2022/05/17 03:28:03;;;;;;;10.32;4.15;;;;;;;23.43;42.16;100271.84;20366081;28;97282;-72
2022/05/17 03:38:04;;;;;;;6.22;3.53;;;;;;;23.38;42.46;100276.69;20360953;28;97414;-73
2022/05/17 03:48:05;;;;;;;12.50;3.83;;;;;;;23.42;42.33;100283.38;20367532;28;99194;-73
2022/05/17 03:58:06;;;;;;;8.35;3.53;;;;;;;23.35;42.12;100291.00;20345964;28;102060;-73
2022/05/17 04:08:06;;;;;;;6.72;3.90;;;;;;;23.31;42.59;100290.47;20354163;28;97263;-73
2022/05/17 04:18:08;;;;;;;8.63;3.90;;;;;;;23.43;42.72;100274.47;20338364;28;98710;-74
2022/05/17 04:28:09;;;;;;;8.73;3.87;;;;;;;23.46;42.79;100279.47;20335622;28;102342;-73
2022/05/17 04:38:09;;;;;;;7.10;3.85;;;;;;;23.49;42.73;100281.84;20391912;28;98031;-74
2022/05/17 04:48:10;;;;;;;10.63;4.50;;;;;;;23.46;42.98;100285.63;20367284;28;101146;-73
2022/05/17 04:58:11;;;;;;;5.75;3.80;;;;;;;23.48;43.09;100283.66;20360325;28;101525;-73
2022/05/17 05:08:11;;;;;;;8.63;3.63;;;;;;;23.62;42.29;100284.22;20374291;28;99412;-72
2022/05/17 05:18:13;;;;;;;11.32;4.00;;;;;;;23.64;42.16;100266.44;20360319;28;101901;-75
2022/05/17 05:37:04;;;;;;;12.90;4.43;;;;;;;23.55;42.22;100297.16;21038649;27;96830;-76
2022/05/17 05:47:05;;;;;;;22.90;5.90;;;;;;;23.52;42.58;100299.25;20987367;27;100772;-77
2022/05/17 05:57:05;;;;;;;16.00;4.30;;;;;;;23.53;42.79;100293.00;20978632;27;101584;-77
2022/05/17 06:07:06;;;;;;;8.80;3.83;;;;;;;23.53;42.81;100280.59;20970398;27;96922;-76
2022/05/17 06:17:07;;;;;;;9.35;3.90;;;;;;;23.67;42.49;100284.66;20868817;27;99336;-75
2022/05/17 06:27:07;;;;;;;10.53;3.87;;;;;;;23.79;42.53;100299.41;20868433;27;97561;-74
2022/05/17 06:37:08;;;;;;;7.00;3.58;;;;;;;23.90;42.20;100310.81;20877997;27;97357;-76
2022/05/17 06:47:09;;;;;;;5.95;3.30;;;;;;;24.01;42.01;100305.44;20807282;27;98351;-75
2022/05/17 06:57:13;;;;;;;280.15;129.55;;;;;;;24.18;43.31;100313.63;20800151;27;100553;-74
2022/05/17 07:07:13;;;;;;;971.03;517.10;;;;;;;24.36;43.47;100313.78;20805189;27;96915;-76
2022/05/17 07:17:22;;;;;;;160.82;65.35;;;;;;;24.11;43.21;100316.84;20799742;27;102506;-76
2022/05/17 07:27:22;;;;;;;19.20;9.60;;;;;;;23.98;43.36;100316.28;20804675;27;98182;-75
2022/05/17 07:37:23;;;;;;;17.02;5.07;;;;;;;23.78;44.21;100315.44;20791480;27;104645;-76
2022/05/17 07:47:23;;;;;;;9.07;4.77;;;;;;;23.71;44.80;100319.59;20812841;27;98272;-78
2022/05/17 07:57:24;;;;;;;8.00;4.85;;;;;;;23.70;45.12;100324.03;20796399;27;97195;-77
2022/05/17 08:07:25;;;;;;;9.68;4.40;;;;;;;23.84;44.68;100320.16;20812369;27;97013;-77
2022/05/17 08:17:26;;;;;;;28.35;10.55;;;;;;;24.08;45.21;100326.88;20793279;27;98740;-76
2022/05/17 08:27:34;;;;;;;20.48;10.02;;;;;;;24.21;47.01;100337.19;20790648;27;96874;-75
2022/05/17 08:37:34;;;;;;;33.70;15.82;;;;;;;24.41;48.10;100349.44;20792362;27;97426;-76
2022/05/17 08:47:49;;;;;;;31.55;17.13;;;;;;;24.55;48.87;100360.56;20793549;27;97005;-77
2022/05/17 08:57:55;;;;;;;32.30;16.70;;;;;;;24.67;47.94;100354.16;20802090;27;97530;-75
2022/05/17 09:08:14;;;;;;;23.30;13.20;;;;;;;24.73;48.53;100371.25;20798666;27;97964;-75
2022/05/17 09:18:17;;;;;;;17.85;9.70;;;;;;;24.75;47.79;100374.59;20799945;27;97013;-76
2022/05/17 09:28:22;;;;;;;13.07;7.85;;;;;;;24.78;48.17;100369.03;20810589;27;97997;-75
2022/05/17 09:38:23;;;;;;;16.77;7.43;;;;;;;24.80;48.22;100369.72;20801327;27;97163;-76
2022/05/17 09:59:01;;;;;;;9.38;5.63;;;;;;;24.78;47.69;100363.75;20798468;27;97901;-76
2022/05/17 10:09:08;;;;;;;9.88;5.93;;;;;;;24.83;47.90;100372.09;20783538;27;98929;-74
2022/05/17 10:19:17;;;;;;;8.35;5.43;;;;;;;24.89;47.81;100374.16;20769672;27;97931;-74
2022/05/17 10:29:36;;;;;;;8.40;5.30;;;;;;;24.96;47.84;100358.50;20806785;27;98009;-75
2022/05/17 10:39:50;;;;;;;8.77;5.55;;;;;;;25.04;47.33;100347.22;20804013;27;100531;-74
2022/05/17 10:50:08;;;;;;;7.28;4.40;;;;;;;25.08;47.56;100354.72;20797504;27;99363;-75
2022/05/17 11:00:18;;;;;;;11.57;4.55;;;;;;;25.09;48.27;100352.91;20787702;27;97916;-74
2022/05/17 11:10:27;;;;;;;11.15;5.13;;;;;;;25.15;48.06;100349.66;20800530;27;97121;-74
2022/05/17 11:20:57;;;;;;;7.07;4.53;;;;;;;25.18;47.12;100348.53;20790768;27;100086;-75
2022/05/17 11:31:04;;;;;;;7.88;5.43;;;;;;;25.23;47.12;100333.03;20791349;27;97617;-75
2022/05/17 11:41:21;;;;;;;12.32;4.97;;;;;;;25.22;46.98;100315.47;20785468;27;98159;-74
2022/05/17 11:51:28;;;;;;;10.30;5.47;;;;;;;25.15;48.02;100301.97;20768909;27;98161;-75
2022/05/17 12:01:31;;;;;;;6.10;4.57;;;;;;;25.18;48.69;100298.19;20764500;27;97616;-76
2022/05/17 12:11:39;;;;;;;10.65;5.18;;;;;;;25.29;48.52;100294.50;20778302;27;104395;-75
2022/05/17 12:21:58;;;;;;;8.85;4.50;;;;;;;25.34;47.79;100279.84;20783647;27;97640;-76
2022/05/17 12:32:07;;;;;;;6.95;4.47;;;;;;;25.39;47.50;100269.66;20807595;27;98032;-77
2022/05/17 12:52:34;;;;;;;5.55;3.85;;;;;;;25.43;46.82;100262.22;20788324;27;98426;-74
2022/05/17 13:02:41;;;;;;;7.07;4.18;;;;;;;25.42;47.06;100252.59;20781691;27;97205;-74
2022/05/17 13:12:42;;;;;;;4.80;3.70;;;;;;;25.40;46.80;100242.16;20805237;27;100401;-75
2022/05/17 13:22:44;;;;;;;;;;;;;;;25.39;46.92;100248.44;20815139;27;97874;-75
2022/05/17 13:32:47;;;;;;;4.53;3.60;;;;;;;25.34;47.22;100265.75;20778135;27;97131;-75
2022/05/17 13:42:51;;;;;;;11.25;3.80;;;;;;;25.31;48.02;100260.75;20777588;27;98670;-76
2022/05/17 13:52:58;;;;;;;9.80;3.53;;;;;;;25.35;46.69;100238.25;20758772;27;99777;-74
2022/05/17 14:03:17;;;;;;;7.10;3.63;;;;;;;25.38;46.69;100230.06;20787428;27;97180;-74
2022/05/17 14:13:27;;;;;;;9.35;3.20;;;;;;;25.42;46.48;100220.81;20803564;27;97371;-74
2022/05/17 14:23:29;;;;;;;8.95;3.80;;;;;;;25.45;47.51;100215.22;20832075;27;99820;-75
2022/05/17 14:33:30;;;;;;;8.38;4.57;;;;;;;25.41;48.69;100213.81;20873452;27;99077;-76
2022/05/17 14:43:31;;;;;;;7.83;4.97;;;;;;;25.37;49.23;100208.00;20866578;27;97854;-77
2022/05/17 14:53:32;;;;;;;7.65;5.38;;;;;;;25.22;49.43;100197.06;20837859;27;99811;-77
2022/05/17 15:03:44;;;;;;;10.80;5.50;;;;;;;25.12;49.95;100200.75;20834428;27;99253;-79
2022/05/17 15:13:44;;;;;;;16.77;6.18;;;;;;;25.12;49.95;100211.34;20821756;27;100673;-76
2022/05/17 15:23:48;;;;;;;8.05;5.88;;;;;;;25.05;50.22;100201.34;20834862;27;100818;-76
2022/05/17 15:33:49;;;;;;;7.25;6.30;;;;;;;25.06;50.35;100202.16;20840572;27;98438;-78
2022/05/17 15:43:52;;;;;;;6.97;5.37;;;;;;;25.08;50.35;100195.78;20846056;27;98686;-76
2022/05/17 15:53:54;;;;;;;9.60;5.60;;;;;;;24.97;50.80;100182.72;20834596;27;97292;-76
2022/05/17 16:14:20;;;;;;;7.60;5.20;;;;;;;24.89;49.90;100203.81;20881927;27;97320;-73
2022/05/17 16:24:22;;;;;;;6.57;4.75;;;;;;;24.89;50.15;100204.66;20885007;27;101306;-74
2022/05/17 16:34:29;;;;;;;6.35;4.30;;;;;;;24.92;50.11;100219.41;20850569;27;101816;-75
2022/05/17 16:44:30;;;;;;;7.05;4.82;;;;;;;25.02;49.56;100208.75;20880202;27;101647;-75
2022/05/17 16:54:31;;;;;;;9.47;4.57;;;;;;;25.05;49.75;100188.09;20826640;27;101504;-75
2022/05/17 17:04:33;;;;;;;10.60;5.17;;;;;;;25.07;50.17;100187.94;20846794;27;97572;-75
2022/05/17 17:14:33;;;;;;;8.17;5.30;;;;;;;25.03;50.36;100190.06;20870587;27;100721;-75
2022/05/17 17:24:34;;;;;;;14.63;8.30;;;;;;;25.09;50.17;100191.28;20834797;27;97319;-75
2022/05/17 17:44:56;;;;;;;9.27;6.95;;;;;;;25.09;50.42;100209.84;20839956;27;100854;-79
2022/05/17 17:54:56;;;;;;;9.73;6.70;;;;;;;25.07;50.48;100204.69;20828487;27;99982;-76
2022/05/17 18:04:57;;;;;;;7.35;6.40;;;;;;;25.10;50.47;100211.50;20831606;27;100963;-76
2022/05/17 18:14:59;;;;;;;7.20;5.97;;;;;;;25.08;50.65;100224.91;20847752;27;98983;-76
2022/05/17 18:25:00;;;;;;;7.47;5.05;;;;;;;25.10;50.66;100233.53;20843978;27;97039;-78
2022/05/17 18:35:04;;;;;;;6.50;4.95;;;;;;;25.10;50.60;100248.59;20835793;27;97625;-77
2022/05/17 18:45:06;;;;;;;6.40;4.30;;;;;;;25.09;50.71;100276.06;20861012;27;104296;-78
2022/05/17 18:55:16;;;;;;;5.53;4.30;;;;;;;25.14;51.22;100310.91;20850906;27;97362;-76
2022/05/17 19:05:21;;;;;;;10.45;3.60;;;;;;;25.16;50.68;100337.25;20807923;27;101005;-73
2022/05/17 19:15:22;;;;;;;9.43;3.70;;;;;;;25.19;51.40;100356.34;20764133;27;97669;-76
2022/05/17 19:25:23;;;;;;;5.33;3.90;;;;;;;25.17;50.89;100395.41;20862248;27;97736;-74
2022/05/17 19:35:31;;;;;;;9.27;4.17;;;;;;;25.16;50.69;100411.44;20830765;27;97240;-75
2022/05/17 19:45:34;;;;;;;6.10;3.63;;;;;;;25.18;50.46;100428.88;20827664;27;97533;-75
2022/05/17 19:55:35;;;;;;;7.57;3.35;;;;;;;25.21;50.13;100427.75;20860638;27;98274;-75
2022/05/17 20:05:36;;;;;;;5.80;3.30;;;;;;;25.18;50.21;100428.03;20858615;27;97332;-76
2022/05/17 20:15:37;;;;;;;8.10;2.97;;;;;;;25.16;49.90;100440.56;20854603;27;98534;-75
2022/05/17 20:25:39;;;;;;;4.67;3.10;;;;;;;25.11;49.54;100438.38;20848504;27;97975;-74
2022/05/17 20:35:41;;;;;;;6.25;2.78;;;;;;;25.13;49.42;100447.00;20844583;27;97040;-75
2022/05/17 20:45:42;;;;;;;3.97;2.75;;;;;;;25.10;48.87;100455.25;20846425;27;100515;-74
2022/05/17 20:55:43;;;;;;;6.67;2.77;;;;;;;25.09;48.56;100461.53;20851777;27;98569;-73
2022/05/17 21:05:44;;;;;;;4.07;2.90;;;;;;;25.08;48.38;100473.94;20846602;27;100390;-73
2022/05/17 21:15:44;;;;;;;3.50;2.67;;;;;;;25.08;48.44;100473.94;20843167;27;98508;-73
2022/05/17 21:25:45;;;;;;;6.38;2.70;;;;;;;25.02;48.28;100482.44;20839953;27;97974;-73
2022/05/17 21:35:46;;;;;;;4.47;2.40;;;;;;;25.01;48.26;100487.88;20840037;27;97708;-72
2022/05/17 21:45:47;;;;;;;3.77;2.30;;;;;;;24.98;48.15;100504.09;20847414;27;102585;-74
2022/05/17 21:55:52;;;;;;;2.83;2.40;;;;;;;24.99;48.20;100521.66;20845176;27;100806;-73
2022/05/17 22:05:52;;;;;;;3.50;2.53;;;;;;;24.96;48.14;100536.00;20848060;27;97555;-73
2022/05/17 22:15:53;;;;;;;4.03;2.47;;;;;;;24.97;48.17;100542.97;20876377;27;97676;-73
2022/05/17 22:25:53;;;;;;;3.80;2.40;;;;;;;24.94;48.12;100553.84;20872324;27;97842;-73
2022/05/17 22:35:54;;;;;;;3.08;2.25;;;;;;;24.94;47.68;100562.63;20866404;27;97061;-74
2022/05/17 22:56:15;;;;;;;2.83;2.30;;;;;;;24.92;48.05;100579.63;20870748;27;97565;-73
2022/05/17 23:06:16;;;;;;;3.77;2.10;;;;;;;24.91;47.99;100601.81;20863171;27;96954;-74
2022/05/17 23:16:17;;;;;;;3.17;2.08;;;;;;;24.90;47.56;100603.63;20872317;27;97446;-74
2022/05/17 23:36:36;;;;;;;2.40;2.20;;;;;;;24.87;47.65;100618.94;20862818;27;97543;-74
2022/05/17 23:46:37;;;;;;;3.00;2.17;;;;;;;24.86;47.75;100628.69;20871248;27;98775;-74
2022/05/17 23:56:39;;;;;;;4.18;2.10;;;;;;;24.83;47.55;100631.63;20874831;27;98350;-74
